sensor_id;sensor_type;location;lat;lon;timestamp;pressure;altitude;pressure_sealevel;temperature;humidity
50093;BME280;35974;47.752;10.290;2023-05-03T00:01:01;94468.53;;;3.41;100.00
50093;BME280;35974;47.752;10.290;2023-05-03T00:03:32;94469.53;;;3.40;100.00
50093;BME280;35974;47.752;10.290;2023-05-03T00:06:08;94467.38;;;3.35;100.00
50093;BME280;35974;47.752;10.290;2023-05-03T00:08:35;94470.09;;;3.34;100.00
50093;BME280;35974;47.752;10.290;2023-05-03T00:11:01;94473.91;;;3.29;100.00
50093;BME280;35974;47.752;10.290;2023-05-03T00:13:28;94464.44;;;3.20;100.00
50093;BME280;35974;47.752;10.290;2023-05-03T00:16:10;94466.94;;;3.12;100.00
50093;BME280;35974;47.752;10.290;2023-05-03T00:18:37;94467.50;;;3.06;100.00
50093;BME280;35974;47.752;10.290;2023-05-03T00:21:03;94464.81;;;2.98;100.00
50093;BME280;35974;47.752;10.290;2023-05-03T00:23:30;94465.78;;;2.97;100.00
50093;BME280;35974;47.752;10.290;2023-05-03T00:25:57;94478.97;;;2.93;100.00
50093;BME280;35974;47.752;10.290;2023-05-03T00:28:24;94468.63;;;2.93;100.00
50093;BME280;35974;47.752;10.290;2023-05-03T00:30:52;94473.53;;;2.97;100.00
50093;BME280;35974;47.752;10.290;2023-05-03T00:33:18;94469.19;;;2.87;100.00
50093;BME280;35974;47.752;10.290;2023-05-03T00:35:53;94469.88;;;2.89;100.00
50093;BME280;35974;47.752;10.290;2023-05-03T00:38:19;94460.75;;;2.95;100.00
50093;BME280;35974;47.752;10.290;2023-05-03T00:40:52;94458.28;;;2.93;100.00
50093;BME280;35974;47.752;10.290;2023-05-03T00:43:18;94464.44;;;2.92;100.00
50093;BME280;35974;47.752;10.290;2023-05-03T00:45:44;94463.47;;;2.93;100.00
50093;BME280;35974;47.752;10.290;2023-05-03T00:48:11;94458.28;;;2.93;100.00
50093;BME280;35974;47.752;10.290;2023-05-03T00:50:46;94464.31;;;2.84;100.00
50093;BME280;35974;47.752;10.290;2023-05-03T00:53:13;94458.84;;;2.87;100.00
50093;BME280;35974;47.752;10.290;2023-05-03T00:55:39;94461.34;;;2.79;100.00
50093;BME280;35974;47.752;10.290;2023-05-03T00:58:06;94460.00;;;2.75;100.00
50093;BME280;35974;47.752;10.290;2023-05-03T01:00:32;94458.94;;;2.68;100.00
50093;BME280;35974;47.752;10.290;2023-05-03T01:02:58;94454.59;;;2.68;100.00
50093;BME280;35974;47.752;10.290;2023-05-03T01:05:25;94452.44;;;2.64;100.00
50093;BME280;35974;47.752;10.290;2023-05-03T01:10:32;94455.94;;;2.63;100.00
50093;BME280;35974;47.752;10.290;2023-05-03T01:18:05;94459.69;;;2.50;100.00
50093;BME280;35974;47.752;10.290;2023-05-03T01:20:34;94457.75;;;2.52;100.00
50093;BME280;35974;47.752;10.290;2023-05-03T01:25:41;94450.84;;;2.43;100.00
50093;BME280;35974;47.752;10.290;2023-05-03T01:28:07;94453.44;;;2.43;100.00
50093;BME280;35974;47.752;10.290;2023-05-03T01:30:33;94450.56;;;2.46;100.00
50093;BME280;35974;47.752;10.290;2023-05-03T01:35:53;94458.16;;;2.58;100.00
50093;BME280;35974;47.752;10.290;2023-05-03T01:38:21;94453.66;;;2.60;100.00
50093;BME280;35974;47.752;10.290;2023-05-03T01:40:52;94458.69;;;2.51;100.00
50093;BME280;35974;47.752;10.290;2023-05-03T01:43:24;94465.50;;;2.52;100.00
50093;BME280;35974;47.752;10.290;2023-05-03T01:45:52;94452.72;;;2.61;100.00
50093;BME280;35974;47.752;10.290;2023-05-03T01:48:19;94452.44;;;2.64;100.00
50093;BME280;35974;47.752;10.290;2023-05-03T01:50:45;94452.44;;;2.64;100.00
50093;BME280;35974;47.752;10.290;2023-05-03T01:53:12;94446.16;;;2.66;100.00
50093;BME280;35974;47.752;10.290;2023-05-03T01:55:38;94450.22;;;2.69;100.00
50093;BME280;35974;47.752;10.290;2023-05-03T01:58:05;94451.31;;;2.66;100.00
50093;BME280;35974;47.752;10.290;2023-05-03T02:00:31;94456.16;;;2.79;100.00
50093;BME280;35974;47.752;10.290;2023-05-03T02:02:58;94454.28;;;2.81;100.00
50093;BME280;35974;47.752;10.290;2023-05-03T02:05:24;94456.44;;;2.76;100.00
50093;BME280;35974;47.752;10.290;2023-05-03T02:07:51;94443.94;;;2.81;100.00
50093;BME280;35974;47.752;10.290;2023-05-03T02:10:17;94447.19;;;2.83;100.00
50093;BME280;35974;47.752;10.290;2023-05-03T02:12:44;94449.09;;;2.81;100.00
50093;BME280;35974;47.752;10.290;2023-05-03T02:15:11;94438.78;;;2.81;100.00
50093;BME280;35974;47.752;10.290;2023-05-03T02:17:37;94448.56;;;2.78;100.00
50093;BME280;35974;47.752;10.290;2023-05-03T02:20:04;94454.28;;;2.81;100.00
50093;BME280;35974;47.752;10.290;2023-05-03T02:22:32;94453.31;;;3.10;100.00
50093;BME280;35974;47.752;10.290;2023-05-03T02:24:58;94454.84;;;2.75;100.00
50093;BME280;35974;47.752;10.290;2023-05-03T02:27:25;94459.78;;;2.59;100.00
50093;BME280;35974;47.752;10.290;2023-05-03T02:29:51;94457.88;;;2.61;100.00
50093;BME280;35974;47.752;10.290;2023-05-03T02:32:18;94468.22;;;2.61;100.00
50093;BME280;35974;47.752;10.290;2023-05-03T02:34:45;94465.50;;;2.52;100.00
50093;BME280;35974;47.752;10.290;2023-05-03T02:37:12;94462.94;;;2.52;100.00
50093;BME280;35974;47.752;10.290;2023-05-03T02:39:38;94452.19;;;2.47;100.00
50093;BME280;35974;47.752;10.290;2023-05-03T02:42:04;94455.72;;;2.46;100.00
50093;BME280;35974;47.752;10.290;2023-05-03T02:44:37;94455.44;;;2.49;100.00
50093;BME280;35974;47.752;10.290;2023-05-03T02:47:03;94454.91;;;2.55;100.00
50093;BME280;35974;47.752;10.290;2023-05-03T02:49:30;94454.91;;;2.55;100.00
50093;BME280;35974;47.752;10.290;2023-05-03T02:51:56;94456.22;;;2.60;100.00
50093;BME280;35974;47.752;10.290;2023-05-03T02:54:23;94455.19;;;2.52;100.00
50093;BME280;35974;47.752;10.290;2023-05-03T02:56:49;94463.34;;;2.48;100.00
50093;BME280;35974;47.752;10.290;2023-05-03T02:59:16;94462.53;;;2.47;100.00
50093;BME280;35974;47.752;10.290;2023-05-03T03:01:42;94463.34;;;2.48;100.00
50093;BME280;35974;47.752;10.290;2023-05-03T03:04:08;94460.34;;;2.52;100.00
50093;BME280;35974;47.752;10.290;2023-05-03T03:06:35;94458.66;;;2.71;100.00
50093;BME280;35974;47.752;10.290;2023-05-03T03:09:02;94458.44;;;2.54;100.00
50093;BME280;35974;47.752;10.290;2023-05-03T03:11:29;94449.22;;;2.42;100.00
50093;BME280;35974;47.752;10.290;2023-05-03T03:13:56;94464.16;;;2.48;100.00
50093;BME280;35974;47.752;10.290;2023-05-03T03:16:22;94461.97;;;2.44;100.00
50093;BME280;35974;47.752;10.290;2023-05-03T03:18:49;94466.06;;;2.46;100.00
50093;BME280;35974;47.752;10.290;2023-05-03T03:21:15;94456.53;;;2.47;100.00
50093;BME280;35974;47.752;10.290;2023-05-03T03:23:49;94459.69;;;2.41;100.00
50093;BME280;35974;47.752;10.290;2023-05-03T03:26:15;94449.78;;;2.36;100.00
50093;BME280;35974;47.752;10.290;2023-05-03T03:28:41;94453.03;;;2.38;100.00
50093;BME280;35974;47.752;10.290;2023-05-03T03:31:08;94450.06;;;2.33;100.00
50093;BME280;35974;47.752;10.290;2023-05-03T03:33:34;94446.78;;;2.41;100.00
50093;BME280;35974;47.752;10.290;2023-05-03T03:36:01;94450.94;;;2.51;100.00
50093;BME280;35974;47.752;10.290;2023-05-03T03:38:27;94453.69;;;2.87;100.00
50093;BME280;35974;47.752;10.290;2023-05-03T03:40:53;94448.50;;;2.87;100.00
50093;BME280;35974;47.752;10.290;2023-05-03T03:43:20;94450.44;;;2.85;100.00
50093;BME280;35974;47.752;10.290;2023-05-03T03:45:46;94449.31;;;2.98;100.00
50093;BME280;35974;47.752;10.290;2023-05-03T03:48:13;94441.03;;;2.84;100.00
50093;BME280;35974;47.752;10.290;2023-05-03T03:50:49;94438.53;;;2.65;100.00
50093;BME280;35974;47.752;10.290;2023-05-03T03:53:16;94446.75;;;2.50;100.00
50093;BME280;35974;47.752;10.290;2023-05-03T03:55:42;94444.72;;;2.44;100.00
50093;BME280;35974;47.752;10.290;2023-05-03T03:58:08;94445.28;;;2.38;100.00
50093;BME280;35974;47.752;10.290;2023-05-03T04:00:35;94445.41;;;2.46;100.00
50093;BME280;35974;47.752;10.290;2023-05-03T04:03:01;94453.25;;;2.54;100.00
50093;BME280;35974;47.752;10.290;2023-05-03T04:05:31;94454.63;;;2.59;100.00
50093;BME280;35974;47.752;10.290;2023-05-03T04:07:58;94456.06;;;2.71;100.00
50093;BME280;35974;47.752;10.290;2023-05-03T04:10:24;94451.97;;;2.78;100.00
50093;BME280;35974;47.752;10.290;2023-05-03T04:12:51;94451.59;;;2.73;100.00
50093;BME280;35974;47.752;10.290;2023-05-03T04:15:17;94450.91;;;2.71;100.00
50093;BME280;35974;47.752;10.290;2023-05-03T04:17:43;94444.50;;;2.75;100.00
50093;BME280;35974;47.752;10.290;2023-05-03T04:20:10;94445.00;;;2.88;100.00
50093;BME280;35974;47.752;10.290;2023-05-03T04:22:37;94441.28;;;3.01;100.00
50093;BME280;35974;47.752;10.290;2023-05-03T04:25:09;94442.31;;;3.08;100.00
50093;BME280;35974;47.752;10.290;2023-05-03T04:27:36;94447.94;;;2.93;100.00
50093;BME280;35974;47.752;10.290;2023-05-03T04:30:03;94445.47;;;3.02;100.00
50093;BME280;35974;47.752;10.290;2023-05-03T04:32:30;94450.34;;;3.05;100.00
50093;BME280;35974;47.752;10.290;2023-05-03T04:37:50;94453.59;;;3.07;100.00
50093;BME280;35974;47.752;10.290;2023-05-03T04:40:17;94453.31;;;3.10;100.00
50093;BME280;35974;47.752;10.290;2023-05-03T04:45:33;94467.41;;;3.25;100.00
50093;BME280;35974;47.752;10.290;2023-05-03T04:48:10;94463.56;;;3.29;100.00
50093;BME280;35974;47.752;10.290;2023-05-03T04:50:38;94458.69;;;3.26;100.00
50093;BME280;35974;47.752;10.290;2023-05-03T04:53:13;94468.16;;;3.36;100.00
50093;BME280;35974;47.752;10.290;2023-05-03T04:55:44;94461.66;;;3.32;100.00
50093;BME280;35974;47.752;10.290;2023-05-03T04:58:19;94473.69;;;3.23;100.00
50093;BME280;35974;47.752;10.290;2023-05-03T05:00:49;94476.88;;;3.35;100.00
50093;BME280;35974;47.752;10.290;2023-05-03T05:03:16;94474.00;;;3.38;100.00
50093;BME280;35974;47.752;10.290;2023-05-03T05:05:42;94476.59;;;3.38;100.00
50093;BME280;35974;47.752;10.290;2023-05-03T05:08:09;94476.34;;;3.31;100.00
50093;BME280;35974;47.752;10.290;2023-05-03T05:10:39;94484.75;;;3.43;100.00
50093;BME280;35974;47.752;10.290;2023-05-03T05:13:10;94482.25;;;3.51;100.00
50093;BME280;35974;47.752;10.290;2023-05-03T05:15:42;94488.84;;;3.63;100.00
50093;BME280;35974;47.752;10.290;2023-05-03T05:18:09;94486.19;;;3.73;100.00
50093;BME280;35974;47.752;10.290;2023-05-03T05:20:35;94489.53;;;3.83;100.00
50093;BME280;35974;47.752;10.290;2023-05-03T05:23:02;94485.09;;;3.76;100.00
50093;BME280;35974;47.752;10.290;2023-05-03T05:25:28;94488.03;;;3.81;100.00
50093;BME280;35974;47.752;10.290;2023-05-03T05:27:54;94481.69;;;3.93;100.00
50093;BME280;35974;47.752;10.290;2023-05-03T05:30:21;94488.13;;;3.89;100.00
50093;BME280;35974;47.752;10.290;2023-05-03T05:32:48;94485.03;;;3.85;100.00
50093;BME280;35974;47.752;10.290;2023-05-03T05:35:15;94488.91;;;3.72;100.00
50093;BME280;35974;47.752;10.290;2023-05-03T05:37:42;94492.94;;;3.84;100.00
50093;BME280;35974;47.752;10.290;2023-05-03T05:40:10;94496.75;;;3.80;100.00
50093;BME280;35974;47.752;10.290;2023-05-03T05:42:37;94494.38;;;3.69;100.00
50093;BME280;35974;47.752;10.290;2023-05-03T05:45:03;94488.91;;;3.72;100.00
50093;BME280;35974;47.752;10.290;2023-05-03T05:47:39;94487.31;;;3.71;100.00
50093;BME280;35974;47.752;10.290;2023-05-03T05:50:07;94496.47;;;3.83;100.00
50093;BME280;35974;47.752;10.290;2023-05-03T05:52:43;94491.00;;;3.86;100.00
50093;BME280;35974;47.752;10.290;2023-05-03T05:55:15;94497.09;;;4.13;100.00
50093;BME280;35974;47.752;10.290;2023-05-03T05:57:42;94495.44;;;4.12;100.00
50093;BME280;35974;47.752;10.290;2023-05-03T06:00:08;94491.28;;;4.19;100.00
50093;BME280;35974;47.752;10.290;2023-05-03T06:02:54;94492.75;;;4.39;100.00
50093;BME280;35974;47.752;10.290;2023-05-03T06:05:21;94491.75;;;4.85;100.00
50093;BME280;35974;47.752;10.290;2023-05-03T06:07:48;94489.78;;;4.79;100.00
50093;BME280;35974;47.752;10.290;2023-05-03T06:10:14;94489.03;;;4.60;100.00
50093;BME280;35974;47.752;10.290;2023-05-03T06:12:41;94490.34;;;4.64;100.00
50093;BME280;35974;47.752;10.290;2023-05-03T06:15:08;94491.88;;;4.75;100.00
50093;BME280;35974;47.752;10.290;2023-05-03T06:17:34;94493.06;;;4.89;100.00
50093;BME280;35974;47.752;10.290;2023-05-03T06:20:01;94488.03;;;4.87;100.00
50093;BME280;35974;47.752;10.290;2023-05-03T06:22:28;94482.09;;;4.95;100.00
50093;BME280;35974;47.752;10.290;2023-05-03T06:24:54;94488.00;;;5.05;100.00
50093;BME280;35974;47.752;10.290;2023-05-03T06:27:21;94490.47;;;5.15;100.00
50093;BME280;35974;47.752;10.290;2023-05-03T06:29:47;94488.69;;;5.16;100.00
50093;BME280;35974;47.752;10.290;2023-05-03T06:32:15;94492.31;;;5.31;100.00
50093;BME280;35974;47.752;10.290;2023-05-03T06:34:41;94486.50;;;5.37;100.00
50093;BME280;35974;47.752;10.290;2023-05-03T06:37:07;94493.09;;;5.66;100.00
50093;BME280;35974;47.752;10.290;2023-05-03T06:39:33;94495.03;;;5.64;100.00
50093;BME280;35974;47.752;10.290;2023-05-03T06:42:00;94495.06;;;5.72;100.00
50093;BME280;35974;47.752;10.290;2023-05-03T06:44:27;94496.66;;;5.73;100.00
50093;BME280;35974;47.752;10.290;2023-05-03T06:46:54;94492.81;;;5.85;100.00
50093;BME280;35974;47.752;10.290;2023-05-03T06:49:20;94493.81;;;6.01;100.00
50093;BME280;35974;47.752;10.290;2023-05-03T06:51:47;94506.19;;;6.48;100.00
50093;BME280;35974;47.752;10.290;2023-05-03T06:54:13;94499.38;;;6.55;100.00
50093;BME280;35974;47.752;10.290;2023-05-03T06:56:40;94501.03;;;6.65;100.00
50093;BME280;35974;47.752;10.290;2023-05-03T06:59:06;94495.13;;;6.87;100.00
50093;BME280;35974;47.752;10.290;2023-05-03T07:01:36;94488.97;;;6.80;100.00
50093;BME280;35974;47.752;10.290;2023-05-03T07:04:02;94483.53;;;7.06;100.00
50093;BME280;35974;47.752;10.290;2023-05-03T07:06:29;94485.88;;;6.85;100.00
50093;BME280;35974;47.752;10.290;2023-05-03T07:09:15;94485.69;;;6.86;100.00
50093;BME280;35974;47.752;10.290;2023-05-03T07:11:47;94491.31;;;7.14;100.00
50093;BME280;35974;47.752;10.290;2023-05-03T07:14:15;94484.91;;;7.33;100.00
50093;BME280;35974;47.752;10.290;2023-05-03T07:16:41;94484.69;;;7.51;100.00
50093;BME280;35974;47.752;10.290;2023-05-03T07:19:08;94479.00;;;7.79;100.00
50093;BME280;35974;47.752;10.290;2023-05-03T07:21:34;94484.44;;;7.69;100.00
50093;BME280;35974;47.752;10.290;2023-05-03T07:24:00;94486.66;;;7.81;100.00
50093;BME280;35974;47.752;10.290;2023-05-03T07:26:27;94479.97;;;8.10;100.00
50093;BME280;35974;47.752;10.290;2023-05-03T07:28:53;94483.22;;;8.12;100.00
50093;BME280;35974;47.752;10.290;2023-05-03T07:31:20;94485.75;;;8.20;100.00
50093;BME280;35974;47.752;10.290;2023-05-03T07:33:48;94487.25;;;8.37;100.00
50093;BME280;35974;47.752;10.290;2023-05-03T07:36:14;94482.75;;;8.31;100.00
50093;BME280;35974;47.752;10.290;2023-05-03T07:38:40;94481.38;;;8.43;100.00
50093;BME280;35974;47.752;10.290;2023-05-03T07:41:07;94483.22;;;8.58;100.00
50093;BME280;35974;47.752;10.290;2023-05-03T07:43:33;94471.00;;;8.73;100.00
50093;BME280;35974;47.752;10.290;2023-05-03T07:46:00;94467.97;;;8.85;100.00
50093;BME280;35974;47.752;10.290;2023-05-03T07:48:26;94465.28;;;8.93;100.00
50093;BME280;35974;47.752;10.290;2023-05-03T07:50:53;94469.69;;;9.07;100.00
50093;BME280;35974;47.752;10.290;2023-05-03T07:53:19;94464.13;;;9.10;100.00
50093;BME280;35974;47.752;10.290;2023-05-03T07:55:46;94456.03;;;9.20;100.00
50093;BME280;35974;47.752;10.290;2023-05-03T07:58:12;94455.56;;;9.16;100.00
50093;BME280;35974;47.752;10.290;2023-05-03T08:00:39;94451.41;;;9.37;100.00
50093;BME280;35974;47.752;10.290;2023-05-03T08:03:05;94451.94;;;9.47;100.00
50093;BME280;35974;47.752;10.290;2023-05-03T08:05:32;94455.69;;;9.60;100.00
50093;BME280;35974;47.752;10.290;2023-05-03T08:08:01;94452.38;;;9.87;100.00
50093;BME280;35974;47.752;10.290;2023-05-03T08:10:34;94450.03;;;9.93;100.00
50093;BME280;35974;47.752;10.290;2023-05-03T08:13:03;94447.63;;;10.13;100.00
50093;BME280;35974;47.752;10.290;2023-05-03T08:15:31;94451.16;;;10.26;100.00
50093;BME280;35974;47.752;10.290;2023-05-03T08:17:58;94449.97;;;10.29;100.00
50093;BME280;35974;47.752;10.290;2023-05-03T08:20:25;94443.22;;;10.56;100.00
50093;BME280;35974;47.752;10.290;2023-05-03T08:22:52;94366.13;;;10.09;100.00
50093;BME280;35974;47.752;10.290;2023-05-03T08:25:24;94445.03;;;10.84;100.00
50093;BME280;35974;47.752;10.290;2023-05-03T08:27:51;94441.88;;;10.95;100.00
50093;BME280;35974;47.752;10.290;2023-05-03T08:30:18;94435.69;;;11.03;100.00
50093;BME280;35974;47.752;10.290;2023-05-03T08:32:45;94429.69;;;11.16;100.00
50093;BME280;35974;47.752;10.290;2023-05-03T08:35:11;94434.47;;;11.06;100.00
50093;BME280;35974;47.752;10.290;2023-05-03T08:37:40;94432.94;;;11.18;100.00
50093;BME280;35974;47.752;10.290;2023-05-03T08:40:07;94427.25;;;11.14;100.00
50093;BME280;35974;47.752;10.290;2023-05-03T08:42:40;94434.31;;;11.14;100.00
50093;BME280;35974;47.752;10.290;2023-05-03T08:45:08;94432.56;;;11.21;100.00
50093;BME280;35974;47.752;10.290;2023-05-03T08:47:35;94428.63;;;11.45;100.00
50093;BME280;35974;47.752;10.290;2023-05-03T08:50:03;94424.88;;;11.75;100.00
50093;BME280;35974;47.752;10.290;2023-05-03T08:52:30;94427.44;;;12.09;100.00
50093;BME280;35974;47.752;10.290;2023-05-03T08:54:58;94426.84;;;12.14;100.00
50093;BME280;35974;47.752;10.290;2023-05-03T08:57:31;94423.22;;;12.22;100.00
50093;BME280;35974;47.752;10.290;2023-05-03T08:59:58;94423.22;;;12.22;100.00
50093;BME280;35974;47.752;10.290;2023-05-03T09:02:27;94419.59;;;12.36;100.00
50093;BME280;35974;47.752;10.290;2023-05-03T09:04:53;94421.81;;;12.39;100.00
50093;BME280;35974;47.752;10.290;2023-05-03T09:07:21;94414.38;;;12.50;100.00
50093;BME280;35974;47.752;10.290;2023-05-03T09:09:48;94422.44;;;12.55;100.00
50093;BME280;35974;47.752;10.290;2023-05-03T09:15:19;94417.78;;;12.57;100.00
50093;BME280;35974;47.752;10.290;2023-05-03T09:17:56;94416.78;;;12.58;100.00
50093;BME280;35974;47.752;10.290;2023-05-03T09:20:34;94409.69;;;12.78;100.00
50093;BME280;35974;47.752;10.290;2023-05-03T09:23:02;94410.88;;;12.96;100.00
50093;BME280;35974;47.752;10.290;2023-05-03T09:25:45;94414.09;;;13.05;100.00
50093;BME280;35974;47.752;10.290;2023-05-03T09:28:12;94406.97;;;13.18;100.00
50093;BME280;35974;47.752;10.290;2023-05-03T09:30:38;94404.97;;;13.34;100.00
50093;BME280;35974;47.752;10.290;2023-05-03T09:33:05;94409.78;;;13.37;100.00
50093;BME280;35974;47.752;10.290;2023-05-03T09:35:31;94404.91;;;13.47;100.00
50093;BME280;35974;47.752;10.290;2023-05-03T09:37:58;94398.84;;;13.40;100.00
50093;BME280;35974;47.752;10.290;2023-05-03T09:40:25;94398.03;;;13.46;100.00
50093;BME280;35974;47.752;10.290;2023-05-03T09:43:05;94394.75;;;13.58;100.00
50093;BME280;35974;47.752;10.290;2023-05-03T09:45:36;94400.22;;;13.95;100.00
50093;BME280;35974;47.752;10.290;2023-05-03T09:48:03;94407.94;;;13.89;100.00
50093;BME280;35974;47.752;10.290;2023-05-03T09:50:30;94404.28;;;13.90;100.00
50093;BME280;35974;47.752;10.290;2023-05-03T09:52:58;94401.91;;;13.82;100.00
50093;BME280;35974;47.752;10.290;2023-05-03T09:55:26;94399.38;;;14.01;100.00
50093;BME280;35974;47.752;10.290;2023-05-03T09:58:00;94401.66;;;14.22;100.00
50093;BME280;35974;47.752;10.290;2023-05-03T10:00:33;94390.13;;;14.49;100.00
50093;BME280;35974;47.752;10.290;2023-05-03T10:03:01;94394.75;;;14.78;100.00
50093;BME280;35974;47.752;10.290;2023-05-03T10:05:31;94402.94;;;15.14;100.00
50093;BME280;35974;47.752;10.290;2023-05-03T10:07:59;94405.66;;;15.26;100.00
50093;BME280;35974;47.752;10.290;2023-05-03T10:10:27;94399.88;;;15.54;100.00
50093;BME280;35974;47.752;10.290;2023-05-03T10:12:56;94398.31;;;15.46;100.00
50093;BME280;35974;47.752;10.290;2023-05-03T10:15:27;94392.69;;;15.43;99.13
50093;BME280;35974;47.752;10.290;2023-05-03T10:17:54;94401.88;;;15.70;99.23
50093;BME280;35974;47.752;10.290;2023-05-03T10:20:27;94400.66;;;16.03;98.22
50093;BME280;35974;47.752;10.290;2023-05-03T10:25:30;94396.38;;;16.21;90.32
50093;BME280;35974;47.752;10.290;2023-05-03T10:28:06;94395.91;;;16.24;89.03
50093;BME280;35974;47.752;10.290;2023-05-03T10:30:37;94396.16;;;15.92;89.81
50093;BME280;35974;47.752;10.290;2023-05-03T10:35:40;94397.13;;;15.61;86.87
50093;BME280;35974;47.752;10.290;2023-05-03T10:38:18;94401.88;;;15.70;94.65
50093;BME280;35974;47.752;10.290;2023-05-03T10:40:45;94400.75;;;15.97;95.52
50093;BME280;35974;47.752;10.290;2023-05-03T10:46:05;94396.81;;;16.18;86.95
50093;BME280;35974;47.752;10.290;2023-05-03T10:48:32;94394.13;;;16.36;88.62
50093;BME280;35974;47.752;10.290;2023-05-03T10:53:44;94393.81;;;16.02;89.13
50093;BME280;35974;47.752;10.290;2023-05-03T10:56:11;94403.50;;;15.90;90.90
50093;BME280;35974;47.752;10.290;2023-05-03T10:58:41;94404.34;;;16.02;89.84
50093;BME280;35974;47.752;10.290;2023-05-03T11:01:11;94398.84;;;15.55;88.99
50093;BME280;35974;47.752;10.290;2023-05-03T11:06:30;94403.53;;;15.34;88.74
50093;BME280;35974;47.752;10.290;2023-05-03T11:08:58;94398.25;;;15.53;91.37
50093;BME280;35974;47.752;10.290;2023-05-03T11:11:24;94397.97;;;15.24;86.56
50093;BME280;35974;47.752;10.290;2023-05-03T11:13:51;94397.06;;;15.30;89.25
50093;BME280;35974;47.752;10.290;2023-05-03T11:16:25;94402.09;;;15.38;94.37
50093;BME280;35974;47.752;10.290;2023-05-03T11:18:52;94395.47;;;15.11;94.04
50093;BME280;35974;47.752;10.290;2023-05-03T11:21:19;94404.25;;;15.05;95.20
50093;BME280;35974;47.752;10.290;2023-05-03T11:23:46;94403.94;;;14.94;94.33
50093;BME280;35974;47.752;10.290;2023-05-03T11:26:12;94405.94;;;14.49;96.84
50093;BME280;35974;47.752;10.290;2023-05-03T11:28:42;94402.00;;;14.33;98.76
50093;BME280;35974;47.752;10.290;2023-05-03T11:31:09;94400.59;;;14.55;97.56
50093;BME280;35974;47.752;10.290;2023-05-03T11:33:36;94389.13;;;14.75;98.97
50093;BME280;35974;47.752;10.290;2023-05-03T11:36:03;94386.91;;;14.72;96.13
50093;BME280;35974;47.752;10.290;2023-05-03T11:38:31;94389.31;;;14.98;95.20
50093;BME280;35974;47.752;10.290;2023-05-03T11:40:58;94387.41;;;14.62;99.68
50093;BME280;35974;47.752;10.290;2023-05-03T11:43:25;94379.44;;;14.69;100.00
50093;BME280;35974;47.752;10.290;2023-05-03T11:45:53;94380.19;;;14.25;98.54
50093;BME280;35974;47.752;10.290;2023-05-03T11:48:24;94389.50;;;14.21;100.00
50093;BME280;35974;47.752;10.290;2023-05-03T11:50:57;94384.91;;;14.42;98.71
50093;BME280;35974;47.752;10.290;2023-05-03T11:53:24;94379.97;;;14.52;98.45
50093;BME280;35974;47.752;10.290;2023-05-03T11:55:51;94378.16;;;14.78;97.58
50093;BME280;35974;47.752;10.290;2023-05-03T12:00:45;94379.22;;;15.32;99.77
50093;BME280;35974;47.752;10.290;2023-05-03T12:03:16;94381.13;;;15.44;97.58
50093;BME280;35974;47.752;10.290;2023-05-03T12:05:44;94373.34;;;15.49;93.79
50093;BME280;35974;47.752;10.290;2023-05-03T12:08:11;94373.19;;;15.62;95.71
50093;BME280;35974;47.752;10.290;2023-05-03T12:10:41;94378.19;;;15.15;97.45
50093;BME280;35974;47.752;10.290;2023-05-03T12:13:08;94376.66;;;15.44;100.00
50093;BME280;35974;47.752;10.290;2023-05-03T12:15:37;94375.34;;;15.84;99.34
50093;BME280;35974;47.752;10.290;2023-05-03T12:18:07;94382.09;;;15.61;93.52
50093;BME280;35974;47.752;10.290;2023-05-03T12:20:35;94381.41;;;15.54;99.18
50093;BME280;35974;47.752;10.290;2023-05-03T12:23:06;94373.66;;;15.71;98.61
50093;BME280;35974;47.752;10.290;2023-05-03T12:25:36;94376.38;;;15.64;98.14
50093;BME280;35974;47.752;10.290;2023-05-03T12:28:05;94378.72;;;15.72;97.37
50093;BME280;35974;47.752;10.290;2023-05-03T12:30:47;94365.75;;;15.41;99.08
50093;BME280;35974;47.752;10.290;2023-05-03T12:33:14;94371.44;;;15.00;95.12
50093;BME280;35974;47.752;10.290;2023-05-03T12:35:42;94372.81;;;14.85;98.12
50093;BME280;35974;47.752;10.290;2023-05-03T12:38:13;94375.94;;;14.50;100.00
50093;BME280;35974;47.752;10.290;2023-05-03T12:40:42;94373.84;;;14.58;100.00
50093;BME280;35974;47.752;10.290;2023-05-03T12:43:10;94366.31;;;14.87;100.00
50093;BME280;35974;47.752;10.290;2023-05-03T12:45:39;94361.06;;;14.87;99.88
50093;BME280;35974;47.752;10.290;2023-05-03T12:48:06;94370.56;;;14.38;100.00
50093;BME280;35974;47.752;10.290;2023-05-03T12:50:37;94373.03;;;14.83;100.00
50093;BME280;35974;47.752;10.290;2023-05-03T12:53:05;94362.91;;;14.61;99.92
50093;BME280;35974;47.752;10.290;2023-05-03T12:55:35;94355.69;;;14.50;100.00
50093;BME280;35974;47.752;10.290;2023-05-03T12:58:08;94367.34;;;14.10;100.00
50093;BME280;35974;47.752;10.290;2023-05-03T13:00:38;94362.94;;;14.29;100.00
50093;BME280;35974;47.752;10.290;2023-05-03T13:03:24;94363.34;;;14.01;100.00
50093;BME280;35974;47.752;10.290;2023-05-03T13:05:59;94367.44;;;13.90;100.00
50093;BME280;35974;47.752;10.290;2023-05-03T13:11:00;94366.50;;;14.10;100.00
50093;BME280;35974;47.752;10.290;2023-05-03T13:13:28;94362.63;;;13.87;100.00
50093;BME280;35974;47.752;10.290;2023-05-03T13:18:33;94360.59;;;13.89;100.00
50093;BME280;35974;47.752;10.290;2023-05-03T13:20:59;94357.50;;;14.24;100.00
50093;BME280;35974;47.752;10.290;2023-05-03T13:23:28;94347.50;;;14.58;100.00
50093;BME280;35974;47.752;10.290;2023-05-03T13:25:54;94347.50;;;15.02;100.00
50093;BME280;35974;47.752;10.290;2023-05-03T13:28:22;94338.94;;;15.44;99.75
50093;BME280;35974;47.752;10.290;2023-05-03T13:30:50;94335.41;;;15.31;97.31
50093;BME280;35974;47.752;10.290;2023-05-03T13:33:16;94343.91;;;15.33;100.00
50093;BME280;35974;47.752;10.290;2023-05-03T13:35:44;94334.81;;;15.48;100.00